Time;durP1;ratioP1;P1;durP2;ratioP2;P2;SDS_P1;SDS_P2;PMS_P1;PMS_P2;Temp;Humidity;BMP_temperature;BMP_pressure;BME280_temperature;BME280_humidity;BME280_pressure;Samples;Min_cycle;Max_cycle;Signal;HPM_P1;HPM_P2
2021/07/17 00:02:02;;;;;;;16.08;7.00;;;;;;;25.19;49.80;102221.63;4995452;28;20022;-61
2021/07/17 00:04:28;;;;;;;17.75;7.22;;;;;;;25.19;50.19;102221.63;4997660;28;20027;-61
2021/07/17 00:06:53;;;;;;;23.40;7.50;;;;;;;25.21;50.11;102227.81;4997072;28;20069;-61
2021/07/17 00:09:18;;;;;;;20.08;7.20;;;;;;;25.23;50.18;102223.84;4997090;28;20129;-61
2021/07/17 00:11:45;;;;;;;21.05;7.00;;;;;;;25.25;50.04;102223.63;4997104;28;20025;-61
2021/07/17 00:14:10;;;;;;;23.35;7.32;;;;;;;25.24;50.28;102216.44;4997056;28;20120;-61
2021/07/17 00:16:36;;;;;;;15.88;6.63;;;;;;;25.24;50.31;102221.91;4997238;28;20459;-61
2021/07/17 00:19:03;;;;;;;20.13;6.05;;;;;;;25.26;50.14;102228.94;4996942;28;20046;-61
2021/07/17 00:21:28;;;;;;;13.50;6.45;;;;;;;25.26;50.34;102223.44;4995776;28;20089;-61
2021/07/17 00:23:54;;;;;;;20.10;6.30;;;;;;;25.26;50.37;102228.09;4996043;28;20022;-61
2021/07/17 00:26:19;;;;;;;19.02;7.13;;;;;;;25.27;50.42;102222.38;4996362;28;20038;-61
2021/07/17 00:28:44;;;;;;;21.30;5.70;;;;;;;25.28;50.10;102226.00;4996427;28;20026;-61
2021/07/17 00:31:10;;;;;;;16.42;6.30;;;;;;;25.27;50.34;102229.75;4996611;28;20149;-61
2021/07/17 00:33:36;;;;;;;16.67;6.25;;;;;;;25.26;50.35;102217.09;4996308;28;20037;-60
2021/07/17 00:36:01;;;;;;;12.75;5.93;;;;;;;25.26;50.18;102217.09;4978951;28;20406;-61
2021/07/17 00:38:27;;;;;;;15.02;5.68;;;;;;;25.27;50.53;102224.28;4997012;28;20022;-61
2021/07/17 00:40:52;;;;;;;21.45;5.93;;;;;;;25.25;50.43;102220.88;4996547;28;20105;-62
2021/07/17 00:43:17;;;;;;;12.90;5.60;;;;;;;25.21;50.30;102212.19;4996412;28;20050;-61
2021/07/17 00:45:43;;;;;;;15.57;6.68;;;;;;;25.21;50.46;102217.66;4996691;28;20116;-61
2021/07/17 00:48:08;;;;;;;16.27;5.65;;;;;;;25.17;50.16;102213.63;4996569;28;20106;-61
2021/07/17 00:50:34;;;;;;;19.60;5.88;;;;;;;25.22;50.34;102210.28;4996363;28;20033;-61
2021/07/17 00:52:59;;;;;;;11.95;5.60;;;;;;;25.19;50.48;102211.53;4996106;28;20521;-61
2021/07/17 00:55:27;;;;;;;11.70;5.53;;;;;;;25.17;50.21;102205.38;4996466;28;20030;-61
2021/07/17 00:57:53;;;;;;;18.63;5.97;;;;;;;25.15;50.83;102212.09;4994610;28;20387;-61
2021/07/17 01:00:19;;;;;;;21.58;6.00;;;;;;;25.15;50.46;102209.38;4996216;28;20028;-61
2021/07/17 01:02:59;;;;;;;15.32;6.55;;;;;;;25.08;50.71;102202.94;4995689;28;20050;-61
2021/07/17 01:05:24;;;;;;;19.95;5.53;;;;;;;25.08;50.94;102202.94;4994821;28;20026;-61
2021/07/17 01:07:50;;;;;;;14.60;5.82;;;;;;;25.10;50.52;102214.59;4996108;28;20038;-61
2021/07/17 01:10:17;;;;;;;26.83;7.95;;;;;;;25.04;50.36;102207.09;4996259;28;20034;-61
2021/07/17 01:12:43;;;;;;;11.25;5.28;;;;;;;25.06;50.89;102207.75;4995905;28;20520;-61
2021/07/17 01:15:09;;;;;;;14.30;6.50;;;;;;;25.04;50.53;102207.97;4995876;28;20122;-61
2021/07/17 01:17:35;;;;;;;15.45;5.45;;;;;;;25.03;50.33;102210.88;4995785;28;20109;-61
2021/07/17 01:20:01;;;;;;;15.38;6.03;;;;;;;25.01;50.33;102212.97;4995581;28;20080;-61
2021/07/17 01:22:27;;;;;;;17.27;6.15;;;;;;;24.95;50.68;102209.09;4995980;28;20375;-61
2021/07/17 01:24:52;;;;;;;16.30;5.95;;;;;;;24.97;51.03;102211.63;4995738;28;20030;-60
2021/07/17 01:27:18;;;;;;;13.23;5.80;;;;;;;24.92;50.94;102200.38;4995317;28;20034;-61
2021/07/17 01:29:44;;;;;;;15.77;6.45;;;;;;;24.95;50.90;102211.84;4995646;28;20026;-61
2021/07/17 01:32:10;;;;;;;14.77;5.72;;;;;;;24.94;50.84;102212.88;4994536;28;20027;-61
2021/07/17 01:34:35;;;;;;;17.38;5.95;;;;;;;24.93;51.10;102210.34;4995514;28;20022;-61
2021/07/17 01:37:01;;;;;;;19.98;7.50;;;;;;;24.93;50.71;102210.34;4995347;28;20030;-61
2021/07/17 01:39:27;;;;;;;18.85;6.28;;;;;;;24.90;50.92;102211.56;4994257;28;20083;-61
2021/07/17 01:41:52;;;;;;;23.83;6.68;;;;;;;24.89;50.81;102209.84;4994054;28;20084;-61
2021/07/17 01:44:17;;;;;;;19.73;6.90;;;;;;;24.87;50.89;102212.75;4993857;28;20034;-61
2021/07/17 01:46:44;;;;;;;20.85;6.10;;;;;;;24.83;50.70;102211.47;4995007;28;20026;-61
2021/07/17 01:49:10;;;;;;;14.40;5.53;;;;;;;24.82;50.49;102220.72;4995215;28;20022;-61
2021/07/17 01:51:35;;;;;;;13.88;5.25;;;;;;;24.81;51.14;102219.03;4994775;28;20069;-61
2021/07/17 01:54:00;;;;;;;21.35;6.22;;;;;;;24.78;50.97;102218.50;4995022;28;20073;-61
2021/07/17 01:56:26;;;;;;;16.55;6.22;;;;;;;24.75;50.74;102225.22;4994753;28;20467;-61
2021/07/17 01:58:55;;;;;;;13.00;5.18;;;;;;;24.73;50.45;102226.44;4995081;28;20026;-61
2021/07/17 02:01:23;;;;;;;17.65;6.65;;;;;;;24.70;51.09;102222.19;4995014;28;20442;-61
2021/07/17 02:03:49;;;;;;;15.38;6.45;;;;;;;24.68;51.18;102224.25;4994744;28;20039;-61
2021/07/17 02:06:24;;;;;;;13.88;5.93;;;;;;;24.67;50.86;102228.06;4995050;28;20081;-61
2021/07/17 02:08:50;;;;;;;16.95;6.50;;;;;;;24.64;50.60;102214.72;4994901;28;20022;-61
2021/07/17 02:11:15;;;;;;;9.68;4.60;;;;;;;24.61;50.50;102216.97;4994654;28;20072;-61
2021/07/17 02:13:40;;;;;;;16.08;6.18;;;;;;;24.59;51.07;102214.44;4994765;28;20045;-60
2021/07/17 02:16:06;;;;;;;19.40;5.72;;;;;;;24.53;50.61;102206.97;4993642;28;20479;-61
2021/07/17 02:18:33;;;;;;;10.30;5.00;;;;;;;24.52;50.45;102207.13;4977135;28;20369;-61
2021/07/17 02:21:00;;;;;;;9.68;4.65;;;;;;;24.49;51.06;102204.75;4993532;28;20479;-61
2021/07/17 02:23:25;;;;;;;11.25;4.65;;;;;;;24.44;51.25;102201.75;4994762;28;20105;-61
2021/07/17 02:25:52;;;;;;;14.05;5.38;;;;;;;24.40;50.92;102208.63;4994446;28;20109;-61
2021/07/17 02:28:17;;;;;;;18.05;5.63;;;;;;;24.37;50.75;102204.38;4994946;28;20022;-61
2021/07/17 02:30:43;;;;;;;17.55;5.72;;;;;;;24.34;50.95;102202.84;4994395;28;20356;-61
2021/07/17 02:33:08;;;;;;;13.15;5.07;;;;;;;24.28;50.66;102200.00;4994546;28;20105;-61
2021/07/17 02:35:33;;;;;;;11.35;5.45;;;;;;;24.28;50.83;102206.34;4994539;28;20060;-61
2021/07/17 02:37:59;;;;;;;14.27;5.45;;;;;;;24.26;51.70;102213.06;4994509;28;20026;-61
2021/07/17 02:40:24;;;;;;;22.30;6.05;;;;;;;24.24;51.13;102226.06;4994410;28;20034;-61
2021/07/17 02:42:50;;;;;;;16.23;5.78;;;;;;;24.23;51.32;102213.41;4994629;28;20066;-61
2021/07/17 02:45:15;;;;;;;21.80;6.50;;;;;;;24.22;51.58;102223.53;4994417;28;20210;-61
2021/07/17 02:47:40;;;;;;;17.40;5.97;;;;;;;24.23;51.06;102229.84;4994031;28;20435;-61
2021/07/17 02:50:07;;;;;;;13.10;5.20;;;;;;;24.19;51.78;102223.03;4994194;28;20113;-61
2021/07/17 02:52:32;;;;;;;18.23;5.78;;;;;;;24.18;51.34;102224.06;4994010;28;20099;-60
2021/07/17 02:54:58;;;;;;;14.52;6.90;;;;;;;24.22;51.12;102225.41;4994232;28;20468;-61
2021/07/17 02:57:23;;;;;;;16.73;5.72;;;;;;;24.21;51.13;102226.44;4994166;28;20468;-61
2021/07/17 02:59:49;;;;;;;19.02;5.82;;;;;;;24.21;51.15;102226.44;4994256;28;20072;-61
2021/07/17 03:02:14;;;;;;;11.43;6.18;;;;;;;24.20;51.53;102230.22;4994150;28;20022;-61
2021/07/17 03:04:39;;;;;;;11.68;6.18;;;;;;;24.20;52.04;102232.97;4992816;28;20030;-61
2021/07/17 03:07:05;;;;;;;19.65;5.68;;;;;;;24.18;51.50;102226.78;4994137;28;20031;-60
2021/07/17 03:09:30;;;;;;;14.25;5.32;;;;;;;24.20;51.83;102230.22;4994267;28;20413;-61
2021/07/17 03:11:55;;;;;;;17.13;6.55;;;;;;;24.19;51.41;102223.88;4994423;28;20026;-61
2021/07/17 03:14:21;;;;;;;16.38;5.43;;;;;;;24.19;51.50;102228.50;4993074;28;20029;-61
2021/07/17 03:16:46;;;;;;;15.77;6.35;;;;;;;24.18;52.15;102224.06;4992632;28;20061;-61
2021/07/17 03:19:12;;;;;;;15.18;5.65;;;;;;;24.17;51.36;102230.59;4993914;28;20117;-61
2021/07/17 03:21:37;;;;;;;18.63;6.43;;;;;;;24.16;51.75;102227.00;4994122;28;20378;-61
2021/07/17 03:24:03;;;;;;;20.00;6.10;;;;;;;24.19;51.97;102231.25;4993954;28;20042;-61
2021/07/17 03:26:28;;;;;;;21.85;6.40;;;;;;;24.16;51.85;102224.25;4994046;28;20522;-61
2021/07/17 03:28:53;;;;;;;18.15;6.32;;;;;;;24.18;51.34;102227.66;4992585;28;20439;-61
2021/07/17 03:31:26;;;;;;;23.77;7.85;;;;;;;24.19;51.67;102228.50;4994345;28;20034;-61
2021/07/17 03:33:52;;;;;;;20.85;8.38;;;;;;;24.18;51.92;102224.91;4993745;28;20038;-61
2021/07/17 03:36:17;;;;;;;16.85;6.05;;;;;;;24.19;51.73;102220.28;4994015;28;20034;-61
2021/07/17 03:38:43;;;;;;;18.25;7.40;;;;;;;24.19;51.96;102217.56;4994531;28;20031;-61
2021/07/17 03:41:08;;;;;;;13.02;5.90;;;;;;;24.21;51.75;102215.47;4976343;28;20045;-61
2021/07/17 03:43:33;;;;;;;22.13;6.68;;;;;;;24.21;51.91;102220.94;4994043;28;20030;-60
2021/07/17 03:45:59;;;;;;;17.27;6.63;;;;;;;24.23;51.91;102218.91;4994374;28;20034;-61
2021/07/17 03:48:24;;;;;;;24.55;7.43;;;;;;;24.23;52.39;102219.72;4993944;28;20097;-61
2021/07/17 03:50:49;;;;;;;16.98;6.13;;;;;;;24.25;52.25;102222.28;4993915;28;20541;-61
2021/07/17 03:53:14;;;;;;;20.23;6.28;;;;;;;24.27;52.02;102228.44;4994275;28;20403;-61
2021/07/17 03:55:40;;;;;;;26.55;7.22;;;;;;;24.29;52.25;102223.59;4993639;28;20060;-61
2021/07/17 03:58:05;;;;;;;21.08;6.75;;;;;;;24.31;51.67;102227.03;4993771;28;20065;-61
2021/07/17 04:00:30;;;;;;;22.10;7.20;;;;;;;24.32;52.10;102229.56;4996158;28;20145;-60
2021/07/17 04:02:56;;;;;;;21.63;6.60;;;;;;;24.32;52.25;102226.84;4996873;28;20136;-61
2021/07/17 04:05:21;;;;;;;23.95;6.28;;;;;;;24.37;52.62;102229.03;4997499;28;20030;-60
2021/07/17 04:07:47;;;;;;;19.73;7.22;;;;;;;24.38;52.31;102230.72;4997629;28;20096;-60
2021/07/17 04:10:14;;;;;;;17.83;6.80;;;;;;;24.39;52.32;102228.84;4997363;28;20041;-61
2021/07/17 04:12:39;;;;;;;22.83;7.75;;;;;;;24.36;52.06;102221.84;4997022;28;20135;-61
2021/07/17 04:15:06;;;;;;;19.70;7.70;;;;;;;24.42;52.63;102229.34;4997106;28;20528;-61
2021/07/17 04:17:31;;;;;;;16.58;7.57;;;;;;;24.43;52.12;102231.00;4996956;28;20041;-61
2021/07/17 04:19:57;;;;;;;16.55;7.18;;;;;;;24.43;52.31;102236.50;4997146;28;20030;-61
2021/07/17 04:22:22;;;;;;;16.35;7.03;;;;;;;24.48;51.95;102234.06;4996920;28;20026;-61
2021/07/17 04:24:48;;;;;;;15.07;5.82;;;;;;;24.50;51.85;102232.00;4996819;28;20026;-61
2021/07/17 04:27:13;;;;;;;18.73;6.75;;;;;;;24.50;51.84;102234.72;4996504;28;20018;-61
2021/07/17 04:29:38;;;;;;;20.48;6.68;;;;;;;24.51;52.64;102233.66;4996465;28;20459;-60
2021/07/17 04:32:04;;;;;;;12.65;6.75;;;;;;;24.52;52.55;102240.88;4996705;28;20058;-60
2021/07/17 04:34:29;;;;;;;16.98;7.50;;;;;;;24.51;52.11;102233.66;4996634;28;20033;-61
2021/07/17 04:36:55;;;;;;;25.98;7.82;;;;;;;24.54;51.94;102238.78;4996650;28;20439;-60
2021/07/17 04:39:21;;;;;;;19.48;6.75;;;;;;;24.55;52.38;102235.03;4995419;28;20026;-61
2021/07/17 04:41:46;;;;;;;14.75;6.00;;;;;;;24.60;52.02;102242.66;4996640;28;20018;-61
2021/07/17 04:44:11;;;;;;;16.30;6.28;;;;;;;24.59;51.94;102236.38;4996546;28;20026;-61
2021/07/17 04:46:37;;;;;;;12.55;5.85;;;;;;;24.62;51.84;102235.97;4996499;28;20025;-61
2021/07/17 04:49:02;;;;;;;22.73;6.35;;;;;;;24.63;52.60;102232.19;4996426;28;20060;-60
2021/07/17 04:51:27;;;;;;;15.80;6.95;;;;;;;24.64;52.26;102236.66;4996222;28;20026;-61
2021/07/17 04:53:53;;;;;;;17.95;6.32;;;;;;;24.68;51.95;102235.22;4996301;28;20479;-61
2021/07/17 04:56:18;;;;;;;12.48;5.93;;;;;;;24.72;51.83;102235.69;4995941;28;20053;-61
2021/07/17 04:58:44;;;;;;;19.10;6.72;;;;;;;24.75;52.08;102235.34;4996536;28;20053;-61
2021/07/17 05:01:09;;;;;;;15.10;7.10;;;;;;;24.78;52.16;102224.84;4996172;28;20037;-61
2021/07/17 05:03:35;;;;;;;15.65;6.18;;;;;;;24.79;52.27;102226.56;4994487;28;20046;-61
2021/07/17 05:06:01;;;;;;;19.88;6.60;;;;;;;24.85;51.75;102236.78;4994696;28;20057;-61
2021/07/17 05:08:26;;;;;;;14.25;5.68;;;;;;;24.88;52.29;102233.66;4995797;28;20026;-61
2021/07/17 05:10:52;;;;;;;19.33;6.55;;;;;;;24.94;52.53;102233.94;4995802;28;20033;-61
2021/07/17 05:13:18;;;;;;;12.10;6.45;;;;;;;24.98;51.95;102230.66;4996282;28;20026;-61
2021/07/17 05:15:44;;;;;;;21.60;7.70;;;;;;;25.02;51.87;102231.09;4995942;28;20438;-61
2021/07/17 05:18:12;;;;;;;17.90;6.32;;;;;;;25.06;51.70;102236.03;4994341;28;20060;-61
2021/07/17 05:20:41;;;;;;;22.38;6.15;;;;;;;25.10;51.84;102231.84;4995784;28;20045;-61
2021/07/17 05:23:07;;;;;;;20.88;7.00;;;;;;;25.18;51.55;102230.94;4995477;28;20061;-61
2021/07/17 05:25:32;;;;;;;19.25;6.32;;;;;;;25.24;51.90;102236.50;4995747;28;20432;-61
2021/07/17 05:27:58;;;;;;;20.23;7.38;;;;;;;25.26;51.47;102225.34;4994795;28;20471;-61
2021/07/17 05:30:23;;;;;;;14.73;6.70;;;;;;;25.32;51.77;102235.56;4995642;28;20505;-61
2021/07/17 05:32:49;;;;;;;22.63;7.63;;;;;;;25.34;52.31;102233.47;4995502;28;20518;-61
2021/07/17 05:35:14;;;;;;;17.65;7.50;;;;;;;25.31;51.75;102242.06;4995496;28;20030;-61
2021/07/17 05:37:40;;;;;;;20.10;6.40;;;;;;;25.31;51.47;102242.94;4995517;28;20423;-61
2021/07/17 05:40:06;;;;;;;19.00;6.93;;;;;;;25.39;51.67;102241.97;4994525;28;20038;-61
2021/07/17 05:42:32;;;;;;;14.38;8.32;;;;;;;25.44;51.38;102245.84;4995994;28;20026;-61
2021/07/17 05:44:57;;;;;;;16.20;6.70;;;;;;;25.50;51.60;102244.25;4995678;28;20076;-61
2021/07/17 05:47:23;;;;;;;17.90;7.75;;;;;;;25.51;51.20;102247.84;4995387;28;20109;-61
2021/07/17 05:49:48;;;;;;;13.73;6.00;;;;;;;25.53;51.39;102245.75;4994047;28;20034;-61
2021/07/17 05:52:13;;;;;;;19.35;7.80;;;;;;;25.58;51.20;102254.25;4995188;28;20375;-61
2021/07/17 05:54:39;;;;;;;14.63;6.57;;;;;;;25.61;51.67;102246.50;4995018;28;20022;-61
2021/07/17 05:57:05;;;;;;;18.45;7.47;;;;;;;25.67;51.51;102248.47;4993591;28;20022;-61
2021/07/17 05:59:31;;;;;;;28.50;8.23;;;;;;;25.72;51.08;102258.84;4995354;28;20022;-61
2021/07/17 06:01:56;;;;;;;18.63;7.88;;;;;;;25.74;51.02;102251.31;4993789;28;20078;-61
2021/07/17 06:04:21;;;;;;;23.35;8.32;;;;;;;25.79;51.57;102257.91;4994657;28;20510;-61
2021/07/17 06:06:47;;;;;;;13.60;7.03;;;;;;;25.82;51.24;102259.41;4994725;28;20481;-61
2021/07/17 06:09:13;;;;;;;27.35;7.68;;;;;;;25.81;51.22;102258.56;4994596;28;20030;-61
2021/07/17 06:11:38;;;;;;;20.55;6.97;;;;;;;25.80;50.71;102262.34;4994996;28;20037;-61
2021/07/17 06:14:03;;;;;;;18.60;6.65;;;;;;;25.77;51.06;102259.97;4994514;28;20026;-61
2021/07/17 06:16:29;;;;;;;20.27;6.95;;;;;;;25.81;50.82;102264.03;4995113;28;20041;-61
2021/07/17 06:18:54;;;;;;;19.83;7.10;;;;;;;25.85;51.21;102268.09;4994254;28;20022;-61
2021/07/17 06:21:19;;;;;;;22.92;6.43;;;;;;;25.91;51.24;102267.31;4994327;28;20080;-61
2021/07/17 06:23:45;;;;;;;18.25;8.75;;;;;;;25.96;50.94;102275.81;4993728;28;20055;-61
2021/07/17 06:26:10;;;;;;;12.23;6.65;;;;;;;25.99;51.14;102285.59;4994633;28;20375;-60
2021/07/17 06:28:37;;;;;;;16.50;6.88;;;;;;;26.00;50.66;102282.63;4994922;28;20041;-61
2021/07/17 06:31:03;;;;;;;22.20;7.53;;;;;;;25.97;50.37;102273.94;4994306;28;20422;-61
2021/07/17 06:33:28;;;;;;;19.20;5.85;;;;;;;25.96;50.52;102281.31;4994517;28;20030;-61
2021/07/17 06:35:54;;;;;;;17.73;6.07;;;;;;;25.96;50.77;102281.31;4994794;28;20037;-61
2021/07/17 06:38:19;;;;;;;15.50;6.47;;;;;;;25.93;50.39;102281.72;4994533;28;20494;-61
2021/07/17 06:40:45;;;;;;;18.80;6.25;;;;;;;25.92;50.78;102277.28;4994210;28;20431;-61
2021/07/17 06:43:10;;;;;;;18.35;6.72;;;;;;;25.92;50.68;102280.00;4994222;28;20041;-61
2021/07/17 06:45:35;;;;;;;21.73;6.75;;;;;;;25.91;50.63;102283.78;4994712;28;20118;-61
2021/07/17 06:48:01;;;;;;;13.88;5.90;;;;;;;26.00;50.63;102282.63;4994369;28;20030;-61
2021/07/17 06:50:26;;;;;;;17.50;5.40;;;;;;;26.12;49.77;102284.88;4993328;28;20117;-61
2021/07/17 06:52:51;;;;;;;15.75;5.32;;;;;;;26.20;50.14;102282.03;4993996;28;20459;-61
2021/07/17 06:55:17;;;;;;;17.65;5.82;;;;;;;26.27;49.79;102285.69;4994502;28;20033;-61
2021/07/17 06:57:45;;;;;;;15.52;5.55;;;;;;;26.34;49.42;102292.09;4994321;28;20026;-61
2021/07/17 07:00:12;;;;;;;13.45;4.97;;;;;;;26.37;49.86;102294.44;4994287;28;20486;-61
2021/07/17 07:02:38;;;;;;;11.85;4.35;;;;;;;26.42;49.41;102294.69;4994057;28;20573;-61
2021/07/17 07:05:05;;;;;;;8.27;4.93;;;;;;;26.48;49.52;102285.66;4994208;28;20069;-61
2021/07/17 07:07:30;;;;;;;18.20;5.93;;;;;;;26.57;48.77;102296.34;4993889;28;20042;-61
2021/07/17 07:09:55;;;;;;;12.80;3.85;;;;;;;26.63;48.86;102302.09;4994251;28;20430;-61
2021/07/17 07:12:21;;;;;;;11.30;5.30;;;;;;;26.71;48.81;102297.28;4993827;28;20034;-61
2021/07/17 07:14:46;;;;;;;14.00;6.03;;;;;;;26.99;48.19;102300.06;4994184;28;20471;-61
2021/07/17 07:17:11;;;;;;;15.40;5.07;;;;;;;27.16;48.14;102306.97;4993884;28;20386;-61
2021/07/17 07:19:37;;;;;;;16.13;5.10;;;;;;;27.64;47.66;102305.13;4993939;28;20064;-61
2021/07/17 07:22:03;;;;;;;11.43;4.78;;;;;;;28.04;46.31;102303.38;4993794;28;20015;-61
2021/07/17 07:24:29;;;;;;;12.60;4.72;;;;;;;28.28;46.32;102309.16;4994283;28;20057;-62
2021/07/17 07:26:56;;;;;;;12.23;5.13;;;;;;;28.47;47.19;102313.00;4994405;28;20022;-63
2021/07/17 07:29:22;;;;;;;14.35;4.38;;;;;;;28.40;46.60;102314.03;4994322;28;20487;-62
2021/07/17 07:31:47;;;;;;;15.02;5.65;;;;;;;28.33;47.17;102318.72;4992980;28;20034;-61
2021/07/17 07:34:13;;;;;;;17.45;4.78;;;;;;;28.31;46.47;102313.41;4995882;28;20113;-61
2021/07/17 07:36:39;;;;;;;11.30;4.90;;;;;;;28.33;46.91;102311.31;4997793;28;20034;-61
2021/07/17 07:39:04;;;;;;;12.88;4.68;;;;;;;28.38;45.95;102319.78;4997743;28;20026;-62
2021/07/17 07:41:30;;;;;;;14.60;5.57;;;;;;;28.30;46.11;102320.84;4997869;28;20042;-61
2021/07/17 07:43:55;;;;;;;11.32;4.70;;;;;;;28.30;45.86;102318.09;4996829;28;20070;-61
2021/07/17 07:46:21;;;;;;;11.30;4.30;;;;;;;28.40;46.17;102316.81;4997798;28;20065;-61
2021/07/17 07:48:46;;;;;;;18.60;6.00;;;;;;;28.38;45.60;102318.94;4997495;28;20034;-62
2021/07/17 07:51:12;;;;;;;14.98;5.10;;;;;;;28.39;45.96;102312.38;4997145;28;20042;-61
2021/07/17 07:53:37;;;;;;;15.75;6.30;;;;;;;28.29;45.70;102319.13;4996446;28;20041;-61
2021/07/17 07:56:03;;;;;;;15.50;5.43;;;;;;;28.14;46.76;102318.44;4996986;28;20391;-61
2021/07/17 07:58:29;;;;;;;20.45;5.32;;;;;;;28.01;46.02;102318.41;4997308;28;20049;-61
2021/07/17 08:00:56;;;;;;;11.55;4.72;;;;;;;27.91;46.39;102317.94;4997583;28;20034;-61
2021/07/17 08:03:21;;;;;;;16.65;5.68;;;;;;;27.91;46.44;102312.44;4995828;28;20101;-61
2021/07/17 08:05:46;;;;;;;10.15;4.88;;;;;;;27.91;46.19;102312.44;4995695;28;20038;-61
2021/07/17 08:08:12;;;;;;;19.08;5.22;;;;;;;28.09;46.27;102309.09;4995996;28;20041;-61
2021/07/17 08:10:38;;;;;;;14.40;5.65;;;;;;;28.50;46.12;102314.50;4997092;28;20030;-61
2021/07/17 08:13:03;;;;;;;14.68;5.13;;;;;;;28.72;44.67;102310.50;4996669;28;20383;-61
2021/07/17 08:15:28;;;;;;;19.10;4.60;;;;;;;28.72;45.18;102313.25;4996962;28;20030;-61
2021/07/17 08:17:54;;;;;;;16.60;4.57;;;;;;;28.75;45.01;102310.94;4997178;28;20080;-61
2021/07/17 08:20:19;;;;;;;15.07;4.80;;;;;;;29.10;44.65;102314.28;4996782;28;20033;-61
2021/07/17 08:22:45;;;;;;;16.05;5.38;;;;;;;29.45;44.18;102318.47;4996040;28;20028;-61
2021/07/17 08:25:11;;;;;;;13.52;5.40;;;;;;;29.53;44.24;102314.63;4996817;28;20105;-61
2021/07/17 08:27:36;;;;;;;11.38;5.60;;;;;;;29.72;43.90;102318.38;4996401;28;20034;-61
2021/07/17 08:30:02;;;;;;;14.73;5.45;;;;;;;29.67;44.64;102316.28;4996432;28;20101;-61
2021/07/17 08:32:28;;;;;;;9.93;4.05;;;;;;;30.04;43.60;102311.84;4996362;28;20019;-61
2021/07/17 08:34:54;;;;;;;11.93;5.45;;;;;;;30.54;43.15;102307.31;4996339;28;20033;-62
2021/07/17 08:37:19;;;;;;;19.77;5.95;;;;;;;30.82;42.96;102306.84;4996610;28;20030;-60
2021/07/17 08:39:45;;;;;;;13.65;5.32;;;;;;;31.27;42.05;102313.84;4996551;28;20030;-61
2021/07/17 08:42:10;;;;;;;12.48;4.88;;;;;;;31.77;41.34;102319.28;4996382;28;20072;-61
2021/07/17 08:44:37;;;;;;;12.88;4.50;;;;;;;31.75;41.82;102313.94;4995965;28;20141;-61
2021/07/17 08:47:03;;;;;;;14.23;4.95;;;;;;;31.53;42.01;102313.59;4995903;28;20537;-61
2021/07/17 08:49:29;;;;;;;11.52;4.82;;;;;;;31.35;43.06;102321.84;4996112;28;20081;-61
2021/07/17 08:51:55;;;;;;;18.33;5.57;;;;;;;31.34;42.01;102314.63;4996235;28;20034;-62
2021/07/17 08:54:21;;;;;;;23.75;5.32;;;;;;;31.89;41.58;102320.16;4996186;28;20026;-61
2021/07/17 08:56:47;;;;;;;16.42;5.80;;;;;;;32.16;40.97;102314.03;4994702;28;20030;-61
2021/07/17 08:59:13;;;;;;;16.55;4.65;;;;;;;32.48;40.26;102317.38;4996470;28;20030;-61
2021/07/17 09:01:38;;;;;;;14.63;4.82;;;;;;;32.76;39.61;102312.03;4996232;28;20348;-61
2021/07/17 09:04:04;;;;;;;10.10;4.32;;;;;;;33.08;39.79;102315.34;4995650;28;20065;-61
2021/07/17 09:06:31;;;;;;;13.38;5.22;;;;;;;33.38;39.52;102304.06;4996079;28;20435;-61
2021/07/17 09:08:57;;;;;;;8.40;4.00;;;;;;;33.74;39.65;102312.09;4995992;28;20122;-61
2021/07/17 09:11:35;;;;;;;12.55;3.95;;;;;;;34.06;38.37;102314.41;4994794;28;20064;-61
2021/07/17 09:14:01;;;;;;;15.88;4.40;;;;;;;34.28;38.49;102309.84;4995969;28;20077;-61
2021/07/17 09:16:30;;;;;;;11.35;3.90;;;;;;;34.32;38.97;102311.00;4995573;28;20094;-59
2021/07/17 09:18:56;;;;;;;10.48;3.83;;;;;;;34.51;38.52;102304.94;4995860;28;20026;-59
2021/07/17 09:21:23;;;;;;;13.93;4.65;;;;;;;34.68;38.10;102305.00;4995536;28;20125;-59
2021/07/17 09:24:06;;;;;;;11.85;3.85;;;;;;;34.83;37.43;102304.41;4996005;28;20025;-59
2021/07/17 09:26:36;;;;;;;13.48;4.65;;;;;;;34.89;37.32;102298.66;4995676;28;20030;-59
2021/07/17 09:29:09;;;;;;;12.57;4.25;;;;;;;35.11;37.53;102301.50;4995568;28;20026;-59
2021/07/17 09:31:35;;;;;;;;;;;;;;;35.27;37.35;102300.63;4996100;28;20109;-59
2021/07/17 09:34:13;;;;;;;7.90;3.58;;;;;;;35.46;37.40;102301.16;4994117;28;19953;-59
2021/07/17 09:36:57;;;;;;;9.75;3.30;;;;;;;35.56;37.10;102298.53;4995504;28;20041;-59
2021/07/17 09:39:26;;;;;;;11.48;4.00;;;;;;;35.76;36.96;102293.22;4995355;28;20105;-60
2021/07/17 09:42:00;;;;;;;8.98;3.67;;;;;;;36.06;36.47;102298.31;4995941;28;20026;-59
2021/07/17 09:44:27;;;;;;;8.50;3.45;;;;;;;36.05;36.44;102297.47;4995363;28;20137;-59
2021/07/17 09:46:53;;;;;;;8.55;3.60;;;;;;;36.11;36.17;102288.03;4995293;28;20057;-59
2021/07/17 09:49:20;;;;;;;11.60;3.83;;;;;;;36.34;35.78;102294.38;4995225;28;20052;-60
2021/07/17 09:51:46;;;;;;;10.07;3.40;;;;;;;36.47;35.25;102293.94;4994830;28;20077;-59
2021/07/17 09:54:12;;;;;;;10.52;4.05;;;;;;;36.49;35.52;102292.56;4995490;28;20030;-59
2021/07/17 09:56:40;;;;;;;6.82;3.22;;;;;;;36.56;34.97;102293.22;4993520;28;20041;-58
2021/07/17 09:59:11;;;;;;;11.85;4.72;;;;;;;36.66;35.00;102286.84;4993567;28;20534;-59
2021/07/17 10:01:41;;;;;;;8.50;3.67;;;;;;;36.76;34.73;102284.16;4995031;28;20037;-59
2021/07/17 10:04:13;;;;;;;10.07;3.58;;;;;;;36.94;34.51;102289.31;4994679;28;20137;-59
2021/07/17 10:06:44;;;;;;;9.20;3.42;;;;;;;37.26;34.47;102284.50;4995199;28;20057;-59
2021/07/17 10:09:12;;;;;;;12.40;11.10;;;;;;;37.72;34.18;102287.50;4995175;28;20030;-59
2021/07/17 10:11:39;;;;;;;29.52;27.25;;;;;;;38.28;33.94;102280.94;4995229;28;20033;-61
2021/07/17 10:14:38;;;;;;;13.10;12.00;;;;;;;39.28;32.58;102276.38;4995065;28;20076;-62
2021/07/17 10:17:10;;;;;;;9.25;3.00;;;;;;;39.31;33.04;102286.22;4986764;28;20039;-61
2021/07/17 10:19:35;;;;;;;;;;;;;;;40.18;31.60;102282.66;4994903;28;20033;-62
2021/07/17 10:22:01;;;;;;;11.23;3.20;;;;;;;39.68;32.67;102286.63;4994974;28;19996;-61
2021/07/17 10:24:27;;;;;;;9.88;3.75;;;;;;;39.66;32.20;102280.47;4993190;28;20089;-62
2021/07/17 10:26:54;;;;;;;8.57;3.83;;;;;;;39.64;31.46;102281.88;4994679;28;20026;-62
2021/07/17 10:29:21;;;;;;;10.05;3.90;;;;;;;39.59;31.16;102282.69;4993404;28;20093;-61
2021/07/17 10:31:48;;;;;;;6.93;2.90;;;;;;;39.48;32.29;102281.91;4994554;28;20410;-62
2021/07/17 10:34:15;;;;;;;9.27;3.30;;;;;;;39.55;32.20;102282.44;4994580;28;20089;-61
2021/07/17 10:36:46;;;;;;;12.98;3.35;;;;;;;39.80;31.20;102283.47;4994214;28;20061;-61
2021/07/17 10:39:12;;;;;;;7.53;3.92;;;;;;;39.93;31.58;102275.22;4994269;28;20515;-62
2021/07/17 10:41:40;;;;;;;8.52;3.70;;;;;;;39.98;31.05;102277.19;4994603;28;20073;-62
2021/07/17 10:44:06;;;;;;;7.38;3.35;;;;;;;40.06;30.91;102273.75;4976716;28;20034;-61
2021/07/17 10:46:34;;;;;;;6.43;3.63;;;;;;;40.16;30.54;102270.91;4994786;28;20027;-62
2021/07/17 10:49:03;;;;;;;8.55;3.85;;;;;;;40.24;30.35;102269.41;4994695;28;20415;-62
2021/07/17 10:51:32;;;;;;;8.65;3.70;;;;;;;40.21;30.53;102268.03;4994331;28;20101;-61
2021/07/17 10:54:00;;;;;;;9.45;3.53;;;;;;;40.30;30.15;102260.66;4994239;28;20438;-61
2021/07/17 10:56:29;;;;;;;8.43;3.78;;;;;;;40.46;29.88;102265.00;4994324;28;20407;-61
2021/07/17 10:58:55;;;;;;;8.13;3.20;;;;;;;40.71;30.13;102269.59;4994285;28;20478;-61
2021/07/17 11:01:21;;;;;;;7.03;4.10;;;;;;;40.92;29.66;102265.47;4994267;28;20034;-61
2021/07/17 11:03:46;;;;;;;4.93;2.70;;;;;;;41.06;29.71;102257.16;4993863;28;20061;-61
2021/07/17 11:06:21;;;;;;;6.38;3.15;;;;;;;41.24;29.87;102262.81;4993192;28;20053;-61
2021/07/17 11:08:46;;;;;;;4.93;2.47;;;;;;;41.39;29.68;102256.22;4995210;28;20491;-61
2021/07/17 11:11:27;;;;;;;6.32;2.85;;;;;;;41.56;29.63;102256.53;4997388;28;20032;-61
2021/07/17 11:14:05;;;;;;;8.13;2.97;;;;;;;41.73;29.29;102253.19;4998113;28;20379;-62
2021/07/17 11:16:47;;;;;;;6.80;3.10;;;;;;;41.77;28.58;102251.47;4998044;28;20101;-62